sensor_id;sensor_type;location;lat;lon;timestamp;pressure;altitude;pressure_sealevel;temperature;humidity
3598;BME280;1813;52.016;8.714;2023-06-19T00:01:30;-16261.94;;;-139.71;39.61
3598;BME280;1813;52.016;8.714;2023-06-19T00:04:06;-16261.94;;;-139.71;38.89
3598;BME280;1813;52.016;8.714;2023-06-19T00:06:40;-16261.94;;;-139.71;38.41
3598;BME280;1813;52.016;8.714;2023-06-19T00:09:14;-16261.94;;;-139.71;37.91
3598;BME280;1813;52.016;8.714;2023-06-19T00:11:47;-16261.94;;;-139.71;37.84
3598;BME280;1813;52.016;8.714;2023-06-19T00:14:21;-16261.94;;;-139.71;38.58
3598;BME280;1813;52.016;8.714;2023-06-19T00:16:55;-16261.94;;;-139.71;38.31
3598;BME280;1813;52.016;8.714;2023-06-19T00:19:35;-16261.94;;;-139.71;37.62
3598;BME280;1813;52.016;8.714;2023-06-19T00:22:09;-16261.94;;;-139.71;37.92
3598;BME280;1813;52.016;8.714;2023-06-19T00:24:43;-16261.94;;;-139.71;37.57
3598;BME280;1813;52.016;8.714;2023-06-19T00:27:17;-16261.94;;;-139.71;37.81
3598;BME280;1813;52.016;8.714;2023-06-19T00:29:50;-16261.94;;;-139.71;39.02
3598;BME280;1813;52.016;8.714;2023-06-19T00:32:24;-16261.94;;;-139.71;39.71
3598;BME280;1813;52.016;8.714;2023-06-19T00:35:04;-16261.94;;;-139.71;39.49
3598;BME280;1813;52.016;8.714;2023-06-19T00:37:38;-16261.94;;;-139.71;39.09
3598;BME280;1813;52.016;8.714;2023-06-19T00:40:26;-16261.94;;;-139.71;39.40
3598;BME280;1813;52.016;8.714;2023-06-19T00:43:01;-16261.94;;;-139.71;39.93
3598;BME280;1813;52.016;8.714;2023-06-19T00:45:35;-16261.94;;;-139.71;41.02
3598;BME280;1813;52.016;8.714;2023-06-19T00:48:09;-16261.94;;;-139.71;41.25
3598;BME280;1813;52.016;8.714;2023-06-19T00:50:46;-16261.94;;;-139.71;40.06
3598;BME280;1813;52.016;8.714;2023-06-19T00:53:22;-16261.94;;;-139.71;39.72
3598;BME280;1813;52.016;8.714;2023-06-19T00:55:56;-16261.94;;;-139.71;39.76
3598;BME280;1813;52.016;8.714;2023-06-19T00:58:31;-16261.94;;;-139.71;39.54
3598;BME280;1813;52.016;8.714;2023-06-19T01:01:05;-16261.94;;;-139.71;39.73
3598;BME280;1813;52.016;8.714;2023-06-19T01:03:40;-16261.94;;;-139.71;39.50
3598;BME280;1813;52.016;8.714;2023-06-19T01:06:22;-16261.94;;;-139.71;39.41
3598;BME280;1813;52.016;8.714;2023-06-19T01:09:03;-16261.94;;;-139.71;39.45
3598;BME280;1813;52.016;8.714;2023-06-19T01:11:43;-16261.94;;;-139.71;39.75
3598;BME280;1813;52.016;8.714;2023-06-19T01:14:19;-16261.94;;;-139.71;40.38
3598;BME280;1813;52.016;8.714;2023-06-19T01:16:55;-16261.94;;;-139.71;40.68
3598;BME280;1813;52.016;8.714;2023-06-19T01:19:30;-16261.94;;;-139.71;40.73
3598;BME280;1813;52.016;8.714;2023-06-19T01:22:07;-16261.94;;;-139.71;40.49
3598;BME280;1813;52.016;8.714;2023-06-19T01:24:41;-16261.94;;;-139.71;41.42
3598;BME280;1813;52.016;8.714;2023-06-19T01:27:14;-16261.94;;;-139.71;42.36
3598;BME280;1813;52.016;8.714;2023-06-19T01:29:49;-16261.94;;;-139.71;42.20
3598;BME280;1813;52.016;8.714;2023-06-19T01:32:30;-16261.94;;;-139.71;42.11
3598;BME280;1813;52.016;8.714;2023-06-19T01:35:07;-16261.94;;;-139.71;44.36
3598;BME280;1813;52.016;8.714;2023-06-19T01:37:47;-16261.94;;;-139.71;43.92
3598;BME280;1813;52.016;8.714;2023-06-19T01:40:23;-16261.94;;;-139.71;42.27
3598;BME280;1813;52.016;8.714;2023-06-19T01:42:59;-16261.94;;;-139.71;41.73
3598;BME280;1813;52.016;8.714;2023-06-19T01:45:35;-16261.94;;;-139.71;41.69
3598;BME280;1813;52.016;8.714;2023-06-19T01:48:10;-16261.94;;;-139.71;41.44
3598;BME280;1813;52.016;8.714;2023-06-19T01:50:45;-16261.94;;;-139.71;41.61
3598;BME280;1813;52.016;8.714;2023-06-19T01:53:22;-16261.94;;;-139.71;41.16
3598;BME280;1813;52.016;8.714;2023-06-19T01:55:56;-16261.94;;;-139.71;41.78
3598;BME280;1813;52.016;8.714;2023-06-19T01:58:29;-16261.94;;;-139.71;41.35
3598;BME280;1813;52.016;8.714;2023-06-19T02:01:06;-16261.94;;;-139.71;41.11
3598;BME280;1813;52.016;8.714;2023-06-19T02:03:39;-16261.94;;;-139.71;41.10
3598;BME280;1813;52.016;8.714;2023-06-19T02:06:14;-16261.94;;;-139.71;41.09
3598;BME280;1813;52.016;8.714;2023-06-19T02:08:50;-16261.94;;;-139.71;41.54
3598;BME280;1813;52.016;8.714;2023-06-19T02:11:24;-16261.94;;;-139.71;41.60
3598;BME280;1813;52.016;8.714;2023-06-19T02:13:59;-16261.94;;;-139.71;41.85
3598;BME280;1813;52.016;8.714;2023-06-19T02:16:33;-16261.94;;;-139.71;41.80
3598;BME280;1813;52.016;8.714;2023-06-19T02:19:07;-16261.94;;;-139.71;41.93
3598;BME280;1813;52.016;8.714;2023-06-19T02:21:43;-16261.94;;;-139.71;42.29
3598;BME280;1813;52.016;8.714;2023-06-19T02:24:19;-16261.94;;;-139.71;42.58
3598;BME280;1813;52.016;8.714;2023-06-19T02:26:53;-16261.94;;;-139.71;42.40
3598;BME280;1813;52.016;8.714;2023-06-19T02:29:28;-16261.94;;;-139.71;42.35
3598;BME280;1813;52.016;8.714;2023-06-19T02:32:05;-16261.94;;;-139.71;42.77
3598;BME280;1813;52.016;8.714;2023-06-19T02:34:39;-16261.94;;;-139.71;42.26
3598;BME280;1813;52.016;8.714;2023-06-19T02:37:13;-16261.94;;;-139.71;43.35
3598;BME280;1813;52.016;8.714;2023-06-19T02:39:49;-16261.94;;;-139.71;43.63
3598;BME280;1813;52.016;8.714;2023-06-19T02:42:23;-16261.94;;;-139.71;43.04
3598;BME280;1813;52.016;8.714;2023-06-19T02:44:57;-16261.94;;;-139.71;42.93
3598;BME280;1813;52.016;8.714;2023-06-19T02:47:36;-16261.94;;;-139.71;44.19
3598;BME280;1813;52.016;8.714;2023-06-19T02:50:10;-16261.94;;;-139.71;45.60
3598;BME280;1813;52.016;8.714;2023-06-19T02:52:44;-16261.94;;;-139.71;46.00
3598;BME280;1813;52.016;8.714;2023-06-19T02:55:21;-16261.94;;;-139.71;44.13
3598;BME280;1813;52.016;8.714;2023-06-19T02:57:55;-16261.94;;;-139.71;43.65
3598;BME280;1813;52.016;8.714;2023-06-19T03:00:29;-16261.94;;;-139.71;43.69
3598;BME280;1813;52.016;8.714;2023-06-19T03:03:03;-16261.94;;;-139.71;44.54
3598;BME280;1813;52.016;8.714;2023-06-19T03:05:36;-16261.94;;;-139.71;46.17
3598;BME280;1813;52.016;8.714;2023-06-19T03:08:10;-16261.94;;;-139.71;45.58
3598;BME280;1813;52.016;8.714;2023-06-19T03:10:46;-16261.94;;;-139.71;46.10
3598;BME280;1813;52.016;8.714;2023-06-19T03:13:20;-16261.94;;;-139.71;46.42
3598;BME280;1813;52.016;8.714;2023-06-19T03:15:54;-16261.94;;;-139.71;46.63
3598;BME280;1813;52.016;8.714;2023-06-19T03:18:28;-16261.94;;;-139.71;46.63
3598;BME280;1813;52.016;8.714;2023-06-19T03:21:02;-16261.94;;;-139.71;46.69
3598;BME280;1813;52.016;8.714;2023-06-19T03:23:36;-16261.94;;;-139.71;46.64
3598;BME280;1813;52.016;8.714;2023-06-19T03:26:12;-16261.94;;;-139.71;45.74
3598;BME280;1813;52.016;8.714;2023-06-19T03:28:47;-16261.94;;;-139.71;45.16
3598;BME280;1813;52.016;8.714;2023-06-19T03:31:21;-16261.94;;;-139.71;44.93
3598;BME280;1813;52.016;8.714;2023-06-19T03:33:55;-16261.94;;;-139.71;44.89
3598;BME280;1813;52.016;8.714;2023-06-19T03:36:30;-16261.94;;;-139.71;45.13
3598;BME280;1813;52.016;8.714;2023-06-19T03:39:11;-16261.94;;;-139.71;46.19
3598;BME280;1813;52.016;8.714;2023-06-19T03:41:48;-16261.94;;;-139.71;45.55
3598;BME280;1813;52.016;8.714;2023-06-19T03:44:22;-16261.94;;;-139.71;45.81
3598;BME280;1813;52.016;8.714;2023-06-19T03:46:56;-16261.94;;;-139.71;46.85
3598;BME280;1813;52.016;8.714;2023-06-19T03:49:29;-16261.94;;;-139.71;48.81
3598;BME280;1813;52.016;8.714;2023-06-19T03:52:04;-16261.94;;;-139.71;49.02
3598;BME280;1813;52.016;8.714;2023-06-19T03:54:39;-16261.94;;;-139.71;49.56
3598;BME280;1813;52.016;8.714;2023-06-19T03:57:15;-16261.94;;;-139.71;49.84
3598;BME280;1813;52.016;8.714;2023-06-19T03:59:49;-16261.94;;;-139.71;50.67
3598;BME280;1813;52.016;8.714;2023-06-19T04:02:26;-16261.94;;;-139.71;49.91
3598;BME280;1813;52.016;8.714;2023-06-19T04:05:00;-16261.94;;;-139.71;48.70
3598;BME280;1813;52.016;8.714;2023-06-19T04:07:34;-16261.94;;;-139.71;47.05
3598;BME280;1813;52.016;8.714;2023-06-19T04:10:08;-16261.94;;;-139.71;47.42
3598;BME280;1813;52.016;8.714;2023-06-19T04:12:46;-16261.94;;;-139.71;47.11
3598;BME280;1813;52.016;8.714;2023-06-19T04:15:20;-16261.94;;;-139.71;47.90
3598;BME280;1813;52.016;8.714;2023-06-19T04:17:54;-16261.94;;;-139.71;49.84
3598;BME280;1813;52.016;8.714;2023-06-19T04:20:28;-16261.94;;;-139.71;48.13
3598;BME280;1813;52.016;8.714;2023-06-19T04:23:02;-16261.94;;;-139.71;46.74
3598;BME280;1813;52.016;8.714;2023-06-19T04:25:36;-16261.94;;;-139.71;47.78
3598;BME280;1813;52.016;8.714;2023-06-19T04:28:13;-16261.94;;;-139.71;46.38
3598;BME280;1813;52.016;8.714;2023-06-19T04:30:46;-16261.94;;;-139.71;43.77
3598;BME280;1813;52.016;8.714;2023-06-19T04:33:20;-16261.94;;;-139.71;42.94
3598;BME280;1813;52.016;8.714;2023-06-19T04:35:54;-16261.94;;;-139.71;42.54
3598;BME280;1813;52.016;8.714;2023-06-19T04:38:28;-16261.94;;;-139.71;42.69
3598;BME280;1813;52.016;8.714;2023-06-19T04:41:01;-16261.94;;;-139.71;42.21
3598;BME280;1813;52.016;8.714;2023-06-19T04:43:38;-16261.94;;;-139.71;41.53
3598;BME280;1813;52.016;8.714;2023-06-19T04:46:12;-16261.94;;;-139.71;41.09
3598;BME280;1813;52.016;8.714;2023-06-19T04:48:50;-16261.94;;;-139.71;41.04
3598;BME280;1813;52.016;8.714;2023-06-19T04:51:25;-16261.94;;;-139.71;40.18
3598;BME280;1813;52.016;8.714;2023-06-19T04:54:00;-16261.94;;;-139.71;39.64
3598;BME280;1813;52.016;8.714;2023-06-19T04:56:34;-16261.94;;;-139.71;39.34
3598;BME280;1813;52.016;8.714;2023-06-19T04:59:10;-16261.94;;;-139.71;38.84
3598;BME280;1813;52.016;8.714;2023-06-19T05:01:48;-16261.94;;;-139.71;38.85
3598;BME280;1813;52.016;8.714;2023-06-19T05:04:24;-16261.94;;;-139.71;38.40
3598;BME280;1813;52.016;8.714;2023-06-19T05:06:58;-16261.94;;;-139.71;38.60
3598;BME280;1813;52.016;8.714;2023-06-19T05:09:32;-16261.94;;;-139.71;38.40
3598;BME280;1813;52.016;8.714;2023-06-19T05:12:06;-16261.94;;;-139.71;38.21
3598;BME280;1813;52.016;8.714;2023-06-19T05:14:42;-16261.94;;;-139.71;38.50
3598;BME280;1813;52.016;8.714;2023-06-19T05:17:16;-16261.94;;;-139.71;38.55
3598;BME280;1813;52.016;8.714;2023-06-19T05:19:50;-16261.94;;;-139.71;38.60
3598;BME280;1813;52.016;8.714;2023-06-19T05:22:24;-16261.94;;;-139.71;38.36
3598;BME280;1813;52.016;8.714;2023-06-19T05:24:58;-16261.94;;;-139.71;38.45
3598;BME280;1813;52.016;8.714;2023-06-19T05:27:32;-16261.94;;;-139.71;38.83
3598;BME280;1813;52.016;8.714;2023-06-19T05:30:10;-16261.94;;;-139.71;39.05
3598;BME280;1813;52.016;8.714;2023-06-19T05:32:44;-16261.94;;;-139.71;39.56
3598;BME280;1813;52.016;8.714;2023-06-19T05:35:19;-16261.94;;;-139.71;39.64
3598;BME280;1813;52.016;8.714;2023-06-19T05:37:53;-16261.94;;;-139.71;39.65
3598;BME280;1813;52.016;8.714;2023-06-19T05:40:26;-16261.94;;;-139.71;40.40
3598;BME280;1813;52.016;8.714;2023-06-19T05:43:00;-16261.94;;;-139.71;40.76
3598;BME280;1813;52.016;8.714;2023-06-19T05:45:37;-16261.94;;;-139.71;41.60
3598;BME280;1813;52.016;8.714;2023-06-19T05:48:11;-16261.94;;;-139.71;41.71
3598;BME280;1813;52.016;8.714;2023-06-19T05:50:45;-16261.94;;;-139.71;42.27
3598;BME280;1813;52.016;8.714;2023-06-19T05:53:19;-16261.94;;;-139.71;42.67
3598;BME280;1813;52.016;8.714;2023-06-19T05:55:53;-16261.94;;;-139.71;43.10
3598;BME280;1813;52.016;8.714;2023-06-19T05:58:28;-16261.94;;;-139.71;43.19
3598;BME280;1813;52.016;8.714;2023-06-19T06:01:05;-16261.94;;;-139.71;43.08
3598;BME280;1813;52.016;8.714;2023-06-19T06:03:38;-16261.94;;;-139.71;43.56
3598;BME280;1813;52.016;8.714;2023-06-19T06:06:12;-16261.94;;;-139.71;43.76
3598;BME280;1813;52.016;8.714;2023-06-19T06:08:46;-16261.94;;;-139.71;43.94
3598;BME280;1813;52.016;8.714;2023-06-19T06:11:19;-16261.94;;;-139.71;44.10
3598;BME280;1813;52.016;8.714;2023-06-19T06:13:53;-16261.94;;;-139.71;44.75
3598;BME280;1813;52.016;8.714;2023-06-19T06:16:29;-16261.94;;;-139.71;44.28
3598;BME280;1813;52.016;8.714;2023-06-19T06:19:03;-16261.94;;;-139.71;44.67
3598;BME280;1813;52.016;8.714;2023-06-19T06:21:37;-16261.94;;;-139.71;44.63
3598;BME280;1813;52.016;8.714;2023-06-19T06:24:11;-16261.94;;;-139.71;44.92
3598;BME280;1813;52.016;8.714;2023-06-19T06:26:45;-16261.94;;;-139.71;44.97
3598;BME280;1813;52.016;8.714;2023-06-19T06:29:19;-16261.94;;;-139.71;45.39
3598;BME280;1813;52.016;8.714;2023-06-19T06:32:03;-16261.94;;;-139.71;45.40
3598;BME280;1813;52.016;8.714;2023-06-19T06:34:37;-16261.94;;;-139.71;45.86
3598;BME280;1813;52.016;8.714;2023-06-19T06:37:10;-16261.94;;;-139.71;45.38
3598;BME280;1813;52.016;8.714;2023-06-19T06:39:46;-16261.94;;;-139.71;46.13
3598;BME280;1813;52.016;8.714;2023-06-19T06:42:20;-16261.94;;;-139.71;45.90
3598;BME280;1813;52.016;8.714;2023-06-19T06:44:54;-16261.94;;;-139.71;45.59
3598;BME280;1813;52.016;8.714;2023-06-19T06:47:31;-16261.94;;;-139.71;45.83
3598;BME280;1813;52.016;8.714;2023-06-19T06:50:05;-16261.94;;;-139.71;45.26
3598;BME280;1813;52.016;8.714;2023-06-19T06:52:40;-16261.94;;;-139.71;45.43
3598;BME280;1813;52.016;8.714;2023-06-19T06:55:14;-16261.94;;;-139.71;45.39
3598;BME280;1813;52.016;8.714;2023-06-19T06:57:47;-16261.94;;;-139.71;45.50
3598;BME280;1813;52.016;8.714;2023-06-19T07:00:21;-16261.94;;;-139.71;45.91
3598;BME280;1813;52.016;8.714;2023-06-19T07:02:58;-16261.94;;;-139.71;45.79
3598;BME280;1813;52.016;8.714;2023-06-19T07:05:31;-16261.94;;;-139.71;45.75
3598;BME280;1813;52.016;8.714;2023-06-19T07:08:06;-16261.94;;;-139.71;46.25
3598;BME280;1813;52.016;8.714;2023-06-19T07:10:40;-16261.94;;;-139.71;46.10
3598;BME280;1813;52.016;8.714;2023-06-19T07:13:14;-16261.94;;;-139.71;45.10
3598;BME280;1813;52.016;8.714;2023-06-19T07:15:47;-16261.94;;;-139.71;44.70
3598;BME280;1813;52.016;8.714;2023-06-19T07:18:24;-16261.94;;;-139.71;44.81
3598;BME280;1813;52.016;8.714;2023-06-19T07:20:58;-16261.94;;;-139.71;44.88
3598;BME280;1813;52.016;8.714;2023-06-19T07:23:31;-16261.94;;;-139.71;44.55
3598;BME280;1813;52.016;8.714;2023-06-19T07:26:05;-16261.94;;;-139.71;44.40
3598;BME280;1813;52.016;8.714;2023-06-19T07:28:39;-16261.94;;;-139.71;44.58
3598;BME280;1813;52.016;8.714;2023-06-19T07:31:13;-16261.94;;;-139.71;44.71
3598;BME280;1813;52.016;8.714;2023-06-19T07:33:49;-16261.94;;;-139.71;43.82
3598;BME280;1813;52.016;8.714;2023-06-19T07:36:23;-16261.94;;;-139.71;44.60
3598;BME280;1813;52.016;8.714;2023-06-19T07:38:56;-16261.94;;;-139.71;44.59
3598;BME280;1813;52.016;8.714;2023-06-19T07:41:30;-16261.94;;;-139.71;44.43
3598;BME280;1813;52.016;8.714;2023-06-19T07:44:04;-16261.94;;;-139.71;44.30
3598;BME280;1813;52.016;8.714;2023-06-19T07:46:38;-16261.94;;;-139.71;44.59
3598;BME280;1813;52.016;8.714;2023-06-19T07:49:14;-16261.94;;;-139.71;44.41
3598;BME280;1813;52.016;8.714;2023-06-19T07:51:48;-16261.94;;;-139.71;44.29
3598;BME280;1813;52.016;8.714;2023-06-19T07:54:22;-16261.94;;;-139.71;44.73
3598;BME280;1813;52.016;8.714;2023-06-19T07:56:55;-16261.94;;;-139.71;44.81
3598;BME280;1813;52.016;8.714;2023-06-19T07:59:29;-16261.94;;;-139.71;44.54
3598;BME280;1813;52.016;8.714;2023-06-19T08:02:03;-16261.94;;;-139.71;44.47
3598;BME280;1813;52.016;8.714;2023-06-19T08:04:40;-16261.94;;;-139.71;45.17
3598;BME280;1813;52.016;8.714;2023-06-19T08:07:13;-16261.94;;;-139.71;45.37
3598;BME280;1813;52.016;8.714;2023-06-19T08:09:47;-16261.94;;;-139.71;45.26
3598;BME280;1813;52.016;8.714;2023-06-19T08:12:21;-16261.94;;;-139.71;45.57
3598;BME280;1813;52.016;8.714;2023-06-19T08:14:55;-16261.94;;;-139.71;45.53
3598;BME280;1813;52.016;8.714;2023-06-19T08:17:29;-16261.94;;;-139.71;45.04
3598;BME280;1813;52.016;8.714;2023-06-19T08:20:06;-16261.94;;;-139.71;45.03
3598;BME280;1813;52.016;8.714;2023-06-19T08:22:40;-16261.94;;;-139.71;45.12
3598;BME280;1813;52.016;8.714;2023-06-19T08:25:14;-16261.94;;;-139.71;45.36
3598;BME280;1813;52.016;8.714;2023-06-19T08:27:48;-16261.94;;;-139.71;45.19
3598;BME280;1813;52.016;8.714;2023-06-19T08:30:22;-16261.94;;;-139.71;45.91
3598;BME280;1813;52.016;8.714;2023-06-19T08:32:56;-16261.94;;;-139.71;45.86
3598;BME280;1813;52.016;8.714;2023-06-19T08:35:33;-16261.94;;;-139.71;46.10
3598;BME280;1813;52.016;8.714;2023-06-19T08:38:06;-16261.94;;;-139.71;46.44
3598;BME280;1813;52.016;8.714;2023-06-19T08:40:42;-16261.94;;;-139.71;46.21
3598;BME280;1813;52.016;8.714;2023-06-19T08:43:16;-16261.94;;;-139.71;46.65
3598;BME280;1813;52.016;8.714;2023-06-19T08:45:56;-16261.94;;;-139.71;46.09
3598;BME280;1813;52.016;8.714;2023-06-19T08:48:37;-16261.94;;;-139.71;46.49
3598;BME280;1813;52.016;8.714;2023-06-19T08:51:14;-16261.94;;;-139.71;46.61
3598;BME280;1813;52.016;8.714;2023-06-19T08:53:49;-16261.94;;;-139.71;46.61
3598;BME280;1813;52.016;8.714;2023-06-19T08:56:24;-16261.94;;;-139.71;45.17
3598;BME280;1813;52.016;8.714;2023-06-19T08:59:07;-16261.94;;;-139.71;44.80
3598;BME280;1813;52.016;8.714;2023-06-19T09:01:47;-16261.94;;;-139.71;44.93
3598;BME280;1813;52.016;8.714;2023-06-19T09:04:25;-16261.94;;;-139.71;44.73
3598;BME280;1813;52.016;8.714;2023-06-19T09:07:06;-16261.94;;;-139.71;44.22
3598;BME280;1813;52.016;8.714;2023-06-19T09:09:47;-16261.94;;;-139.71;44.21
3598;BME280;1813;52.016;8.714;2023-06-19T09:12:21;-16261.94;;;-139.71;43.16
3598;BME280;1813;52.016;8.714;2023-06-19T09:15:11;-16261.94;;;-139.71;43.52
3598;BME280;1813;52.016;8.714;2023-06-19T09:17:45;-16261.94;;;-139.71;43.81
3598;BME280;1813;52.016;8.714;2023-06-19T09:20:26;-16261.94;;;-139.71;43.85
3598;BME280;1813;52.016;8.714;2023-06-19T09:23:03;-16261.94;;;-139.71;43.57
3598;BME280;1813;52.016;8.714;2023-06-19T09:25:44;-16261.94;;;-139.71;43.95
3598;BME280;1813;52.016;8.714;2023-06-19T09:28:19;-16261.94;;;-139.71;43.40
3598;BME280;1813;52.016;8.714;2023-06-19T09:30:54;-16261.94;;;-139.71;42.35
3598;BME280;1813;52.016;8.714;2023-06-19T09:33:31;-16261.94;;;-139.71;42.56
3598;BME280;1813;52.016;8.714;2023-06-19T09:36:06;-16261.94;;;-139.71;42.57
3598;BME280;1813;52.016;8.714;2023-06-19T09:38:42;-16261.94;;;-139.71;42.88
3598;BME280;1813;52.016;8.714;2023-06-19T09:41:17;-16261.94;;;-139.71;43.00
3598;BME280;1813;52.016;8.714;2023-06-19T09:43:55;-16261.94;;;-139.71;42.71
3598;BME280;1813;52.016;8.714;2023-06-19T09:46:32;-16261.94;;;-139.71;43.63
3598;BME280;1813;52.016;8.714;2023-06-19T09:49:08;-16261.94;;;-139.71;43.83
3598;BME280;1813;52.016;8.714;2023-06-19T09:51:43;-16261.94;;;-139.71;43.35
3598;BME280;1813;52.016;8.714;2023-06-19T09:54:20;-16261.94;;;-139.71;43.11
3598;BME280;1813;52.016;8.714;2023-06-19T09:56:56;-16261.94;;;-139.71;43.30
3598;BME280;1813;52.016;8.714;2023-06-19T09:59:34;-16261.94;;;-139.71;42.94
3598;BME280;1813;52.016;8.714;2023-06-19T10:02:08;-16261.94;;;-139.71;42.32
3598;BME280;1813;52.016;8.714;2023-06-19T10:04:44;-16261.94;;;-139.71;42.47
3598;BME280;1813;52.016;8.714;2023-06-19T10:07:19;-16261.94;;;-139.71;42.70
3598;BME280;1813;52.016;8.714;2023-06-19T10:10:01;-16261.94;;;-139.71;42.34
3598;BME280;1813;52.016;8.714;2023-06-19T10:12:39;-16261.94;;;-139.71;42.35
3598;BME280;1813;52.016;8.714;2023-06-19T10:15:16;-16261.94;;;-139.71;42.33
3598;BME280;1813;52.016;8.714;2023-06-19T10:17:51;-16261.94;;;-139.71;42.00
3598;BME280;1813;52.016;8.714;2023-06-19T10:20:27;-16261.94;;;-139.71;42.28
3598;BME280;1813;52.016;8.714;2023-06-19T10:23:05;-16261.94;;;-139.71;42.18
3598;BME280;1813;52.016;8.714;2023-06-19T10:25:42;-16261.94;;;-139.71;42.46
3598;BME280;1813;52.016;8.714;2023-06-19T10:28:18;-16261.94;;;-139.71;42.94
3598;BME280;1813;52.016;8.714;2023-06-19T10:30:53;-16261.94;;;-139.71;43.18
3598;BME280;1813;52.016;8.714;2023-06-19T10:33:30;-16261.94;;;-139.71;43.50
3598;BME280;1813;52.016;8.714;2023-06-19T10:36:14;-16261.94;;;-139.71;43.97
3598;BME280;1813;52.016;8.714;2023-06-19T10:38:48;-16261.94;;;-139.71;43.42
3598;BME280;1813;52.016;8.714;2023-06-19T10:41:25;-16261.94;;;-139.71;44.29
3598;BME280;1813;52.016;8.714;2023-06-19T10:44:00;-16261.94;;;-139.71;43.99
3598;BME280;1813;52.016;8.714;2023-06-19T10:46:36;-16261.94;;;-139.71;43.39
3598;BME280;1813;52.016;8.714;2023-06-19T10:49:10;-16261.94;;;-139.71;43.04
3598;BME280;1813;52.016;8.714;2023-06-19T10:51:44;-16261.94;;;-139.71;42.89
3598;BME280;1813;52.016;8.714;2023-06-19T10:54:18;-16261.94;;;-139.71;42.61
3598;BME280;1813;52.016;8.714;2023-06-19T10:56:54;-16261.94;;;-139.71;42.12
3598;BME280;1813;52.016;8.714;2023-06-19T10:59:28;-16261.94;;;-139.71;41.23
3598;BME280;1813;52.016;8.714;2023-06-19T11:02:02;-16261.94;;;-139.71;40.84
3598;BME280;1813;52.016;8.714;2023-06-19T11:04:37;-16261.94;;;-139.71;41.02
3598;BME280;1813;52.016;8.714;2023-06-19T11:07:12;-16261.94;;;-139.71;41.42
3598;BME280;1813;52.016;8.714;2023-06-19T11:09:45;-16261.94;;;-139.71;41.50
3598;BME280;1813;52.016;8.714;2023-06-19T11:12:22;-16261.94;;;-139.71;42.02
3598;BME280;1813;52.016;8.714;2023-06-19T11:14:56;-16261.94;;;-139.71;41.82
3598;BME280;1813;52.016;8.714;2023-06-19T11:17:30;-16261.94;;;-139.71;41.09
3598;BME280;1813;52.016;8.714;2023-06-19T11:20:09;-16261.94;;;-139.71;40.34
3598;BME280;1813;52.016;8.714;2023-06-19T11:22:43;-16261.94;;;-139.71;40.76
3598;BME280;1813;52.016;8.714;2023-06-19T11:25:17;-16261.94;;;-139.71;41.02
3598;BME280;1813;52.016;8.714;2023-06-19T11:27:58;-16261.94;;;-139.71;41.10
3598;BME280;1813;52.016;8.714;2023-06-19T11:30:34;-16261.94;;;-139.71;40.79
3598;BME280;1813;52.016;8.714;2023-06-19T11:33:16;-16261.94;;;-139.71;41.50
3598;BME280;1813;52.016;8.714;2023-06-19T11:35:53;-16261.94;;;-139.71;42.11
3598;BME280;1813;52.016;8.714;2023-06-19T11:38:28;-16261.94;;;-139.71;42.07
3598;BME280;1813;52.016;8.714;2023-06-19T11:41:02;-16261.94;;;-139.71;42.32
3598;BME280;1813;52.016;8.714;2023-06-19T11:43:42;-16261.94;;;-139.71;42.71
3598;BME280;1813;52.016;8.714;2023-06-19T11:46:15;-16261.94;;;-139.71;42.21
3598;BME280;1813;52.016;8.714;2023-06-19T11:48:52;-16261.94;;;-139.71;42.16
3598;BME280;1813;52.016;8.714;2023-06-19T11:51:26;-16261.94;;;-139.71;42.16
3598;BME280;1813;52.016;8.714;2023-06-19T11:54:00;-16261.94;;;-139.71;42.29
3598;BME280;1813;52.016;8.714;2023-06-19T11:56:34;-16261.94;;;-139.71;42.84
3598;BME280;1813;52.016;8.714;2023-06-19T11:59:11;-16261.94;;;-139.71;42.92
3598;BME280;1813;52.016;8.714;2023-06-19T12:01:45;-16261.94;;;-139.71;42.99
3598;BME280;1813;52.016;8.714;2023-06-19T12:04:19;-16261.94;;;-139.71;43.11
3598;BME280;1813;52.016;8.714;2023-06-19T12:06:53;-16261.94;;;-139.71;43.20
3598;BME280;1813;52.016;8.714;2023-06-19T12:09:27;-16261.94;;;-139.71;42.88
3598;BME280;1813;52.016;8.714;2023-06-19T12:12:01;-16261.94;;;-139.71;42.40
3598;BME280;1813;52.016;8.714;2023-06-19T12:14:37;-16261.94;;;-139.71;42.71
3598;BME280;1813;52.016;8.714;2023-06-19T12:17:11;-16261.94;;;-139.71;42.43
3598;BME280;1813;52.016;8.714;2023-06-19T12:19:45;-16261.94;;;-139.71;42.39
3598;BME280;1813;52.016;8.714;2023-06-19T12:22:19;-16261.94;;;-139.71;42.22
3598;BME280;1813;52.016;8.714;2023-06-19T12:24:53;-16261.94;;;-139.71;42.73
3598;BME280;1813;52.016;8.714;2023-06-19T12:27:27;-16261.94;;;-139.71;42.59
3598;BME280;1813;52.016;8.714;2023-06-19T12:30:05;-16261.94;;;-139.71;42.36
3598;BME280;1813;52.016;8.714;2023-06-19T12:32:38;-16261.94;;;-139.71;41.67
3598;BME280;1813;52.016;8.714;2023-06-19T12:35:12;-16261.94;;;-139.71;41.47
3598;BME280;1813;52.016;8.714;2023-06-19T12:37:46;-16261.94;;;-139.71;40.97
3598;BME280;1813;52.016;8.714;2023-06-19T12:40:20;-16261.94;;;-139.71;40.61
3598;BME280;1813;52.016;8.714;2023-06-19T12:42:53;-16261.94;;;-139.71;40.63
3598;BME280;1813;52.016;8.714;2023-06-19T12:45:30;-16261.94;;;-139.71;40.75
3598;BME280;1813;52.016;8.714;2023-06-19T12:48:04;-16261.94;;;-139.71;40.63
3598;BME280;1813;52.016;8.714;2023-06-19T12:50:38;-16261.94;;;-139.71;41.11
3598;BME280;1813;52.016;8.714;2023-06-19T12:53:11;-16261.94;;;-139.71;40.37
3598;BME280;1813;52.016;8.714;2023-06-19T12:55:45;-16261.94;;;-139.71;40.00
3598;BME280;1813;52.016;8.714;2023-06-19T12:58:19;-16261.94;;;-139.71;40.00
3598;BME280;1813;52.016;8.714;2023-06-19T13:00:55;-16261.94;;;-139.71;39.88
3598;BME280;1813;52.016;8.714;2023-06-19T13:03:29;-16261.94;;;-139.71;39.36
3598;BME280;1813;52.016;8.714;2023-06-19T13:06:03;-16261.94;;;-139.71;38.78
3598;BME280;1813;52.016;8.714;2023-06-19T13:08:37;-16261.94;;;-139.71;39.43
3598;BME280;1813;52.016;8.714;2023-06-19T13:11:10;-16261.94;;;-139.71;38.63
3598;BME280;1813;52.016;8.714;2023-06-19T13:13:44;-16261.94;;;-139.71;37.91
3598;BME280;1813;52.016;8.714;2023-06-19T13:16:21;-16261.94;;;-139.71;38.10
3598;BME280;1813;52.016;8.714;2023-06-19T13:18:56;-16261.94;;;-139.71;38.37
3598;BME280;1813;52.016;8.714;2023-06-19T13:21:30;-16261.94;;;-139.71;38.24
3598;BME280;1813;52.016;8.714;2023-06-19T13:24:04;-16261.94;;;-139.71;36.53
3598;BME280;1813;52.016;8.714;2023-06-19T13:26:38;-16261.94;;;-139.71;36.70
3598;BME280;1813;52.016;8.714;2023-06-19T13:29:12;-16261.94;;;-139.71;36.12
3598;BME280;1813;52.016;8.714;2023-06-19T13:31:48;-16261.94;;;-139.71;37.20